Goryachiy klyuch, Russia
Current Conditions -  °F | °C
As of 6:00 PM on Sunday 21 Dec 2014 (Local Time) from URKK Reporting Station
Clear Clear  
Wind Chill: 50°   Ceiling: Unl
Heat Index: 50°   Visibility: 6mi
Dew Point: 43°   Wind: 9mph
Humidity: 76%   Direction: 190°S
Pressure: 29.88"   Gusts: NA
Location:  44.63°N, 39.13°E
Report Text: URKK 211500Z 19004MPS CAVOK 10/06 Q1012 NOSIG RMK QFE755 SC065
Loading
Personal Weather Stations






























Interactive Weather Map New forecast layout! Learn more

10-Day Weather Forecast

Advertisements
Track Severe Weather on mobile